Time;durP1;ratioP1;P1;durP2;ratioP2;P2;SDS_P1;SDS_P2;PMS_P1;PMS_P2;Temp;Humidity;BMP_temperature;BMP_pressure;BME280_temperature;BME280_humidity;BME280_pressure;Samples;Min_cycle;Max_cycle;Signal;HPM_P1;HPM_P2
2024/02/24 00:01:21;;;;;;;2.23;2.13;;;4.50;56.90;;;;;;4963696;28;20778;-63
2024/02/24 00:03:48;;;;;;;2.70;2.50;;;4.50;57.10;;;;;;4969063;28;20212;-63
2024/02/24 00:06:14;;;;;;;2.60;2.40;;;4.50;56.90;;;;;;4973059;28;20198;-63
2024/02/24 00:08:41;;;;;;;5.63;2.50;;;4.50;57.00;;;;;;4975308;28;20275;-63
2024/02/24 00:11:08;;;;;;;2.47;2.37;;;4.50;56.80;;;;;;4975973;28;20291;-63
2024/02/24 00:13:34;;;;;;;2.80;2.63;;;4.60;56.90;;;;;;4976167;28;20267;-64
2024/02/24 00:16:01;;;;;;;3.20;3.00;;;4.50;57.00;;;;;;4975375;28;20237;-63
2024/02/24 00:18:27;;;;;;;2.73;2.53;;;4.40;57.10;;;;;;4975028;28;20217;-64
2024/02/24 00:20:53;;;;;;;2.73;2.53;;;4.40;57.10;;;;;;4975888;28;20292;-63
2024/02/24 00:23:20;;;;;;;2.90;2.70;;;4.50;57.30;;;;;;4972063;28;20200;-63
2024/02/24 00:25:46;;;;;;;2.57;2.37;;;4.50;57.10;;;;;;4973762;28;20762;-63
2024/02/24 00:28:13;;;;;;;2.90;2.63;;;4.50;57.80;;;;;;4968980;28;20213;-63
2024/02/24 00:30:39;;;;;;;2.90;2.70;;;4.50;56.90;;;;;;4969093;28;20269;-63
2024/02/24 00:33:06;;;;;;;2.60;2.40;;;4.50;57.10;;;;;;4967322;28;20299;-63
2024/02/24 00:35:33;;;;;;;2.70;2.50;;;4.50;57.00;;;;;;4975917;28;20224;-63
2024/02/24 00:37:59;;;;;;;2.80;2.60;;;4.50;56.40;;;;;;4975821;28;20219;-63
2024/02/24 00:40:26;;;;;;;2.87;2.67;;;4.50;56.80;;;;;;4974104;28;20627;-63
2024/02/24 00:42:52;;;;;;;2.40;2.20;;;4.50;56.60;;;;;;4975093;28;20237;-63
2024/02/24 00:45:19;;;;;;;2.53;2.33;;;4.50;56.80;;;;;;4975338;28;20208;-63
2024/02/24 00:47:45;;;;;;;3.23;2.30;;;4.50;56.70;;;;;;4970847;28;20217;-63
2024/02/24 00:50:12;;;;;;;2.40;2.30;;;4.40;56.70;;;;;;4972092;28;20268;-63
2024/02/24 00:52:38;;;;;;;2.73;2.53;;;4.40;57.10;;;;;;4974920;28;20797;-63
2024/02/24 00:55:05;;;;;;;2.20;2.10;;;4.40;56.90;;;;;;4967115;28;20225;-63
2024/02/24 00:57:31;;;;;;;2.57;2.37;;;4.40;56.80;;;;;;4965845;28;20707;-63
2024/02/24 00:59:58;;;;;;;2.70;2.50;;;4.40;56.60;;;;;;4970953;28;20234;-63
2024/02/24 01:02:25;;;;;;;3.03;2.30;;;4.30;56.90;;;;;;4966043;28;20227;-64
2024/02/24 01:04:52;;;;;;;2.30;2.20;;;4.30;56.80;;;;;;4970239;28;20672;-63
2024/02/24 01:07:18;;;;;;;2.20;2.07;;;4.30;56.80;;;;;;4969591;28;20229;-63
2024/02/24 01:09:45;;;;;;;2.87;2.30;;;4.20;56.90;;;;;;4971522;28;20209;-63
2024/02/24 01:12:11;;;;;;;2.20;2.10;;;4.30;57.00;;;;;;4974877;28;20228;-63
2024/02/24 01:14:39;;;;;;;2.17;2.07;;;4.30;56.80;;;;;;4970949;28;20204;-63
2024/02/24 01:17:05;;;;;;;2.10;2.00;;;4.30;56.70;;;;;;4967253;28;20219;-63
2024/02/24 01:19:32;;;;;;;2.30;2.10;;;4.30;56.70;;;;;;4974869;28;20214;-63
2024/02/24 01:21:58;;;;;;;2.43;2.23;;;4.30;56.40;;;;;;4971604;28;20262;-63
2024/02/24 01:24:24;;;;;;;2.30;2.20;;;4.30;56.70;;;;;;4966598;28;20209;-63
2024/02/24 01:26:50;;;;;;;2.30;2.10;;;4.30;56.30;;;;;;4965127;28;20205;-63
2024/02/24 01:29:17;;;;;;;2.30;2.20;;;4.30;56.40;;;;;;4973998;28;20287;-63
2024/02/24 01:31:43;;;;;;;2.33;2.17;;;4.20;56.30;;;;;;4973666;28;20335;-63
2024/02/24 01:34:10;;;;;;;2.10;2.00;;;4.20;56.70;;;;;;4967448;28;20568;-63
2024/02/24 01:36:36;;;;;;;2.00;1.90;;;4.30;56.50;;;;;;4974305;28;20232;-63
2024/02/24 01:39:03;;;;;;;2.27;2.13;;;4.30;56.30;;;;;;4974087;28;20465;-63
2024/02/24 01:41:29;;;;;;;2.03;1.93;;;4.20;56.60;;;;;;4968380;28;20221;-63
2024/02/24 01:43:56;;;;;;;2.07;1.97;;;4.40;56.10;;;;;;4963721;28;20241;-63
2024/02/24 01:46:22;;;;;;;2.03;1.93;;;4.30;56.20;;;;;;4969700;28;20584;-63
2024/02/24 01:48:49;;;;;;;2.00;1.90;;;4.20;56.50;;;;;;4972318;28;20213;-63
2024/02/24 01:51:15;;;;;;;2.07;1.97;;;4.20;56.50;;;;;;4969215;28;20253;-63
2024/02/24 01:53:42;;;;;;;2.07;1.97;;;4.20;56.50;;;;;;4973027;28;20216;-63
2024/02/24 01:56:08;;;;;;;1.80;1.70;;;4.20;56.50;;;;;;4954576;28;20255;-63
2024/02/24 01:58:35;;;;;;;2.10;2.00;;;4.20;56.80;;;;;;4969077;28;20208;-63
2024/02/24 02:01:01;;;;;;;2.00;1.90;;;4.20;56.50;;;;;;4971058;28;20243;-63
2024/02/24 02:03:28;;;;;;;2.10;2.00;;;4.20;56.50;;;;;;4966047;28;20206;-63
2024/02/24 02:05:54;;;;;;;1.80;1.70;;;4.20;56.70;;;;;;4970789;28;20236;-63
2024/02/24 02:08:21;;;;;;;1.90;1.80;;;4.20;56.60;;;;;;4965305;28;20214;-63
2024/02/24 02:10:47;;;;;;;2.10;2.00;;;4.10;56.30;;;;;;4957096;28;20249;-63
2024/02/24 02:13:14;;;;;;;2.13;2.03;;;4.10;56.40;;;;;;4955077;28;20229;-63
2024/02/24 02:15:40;;;;;;;1.90;1.80;;;4.00;56.90;;;;;;4972596;28;20260;-62
2024/02/24 02:18:07;;;;;;;2.17;2.07;;;4.00;56.90;;;;;;4965160;28;20271;-62
2024/02/24 02:20:33;;;;;;;2.20;2.10;;;4.00;57.10;;;;;;4958818;28;20209;-63
2024/02/24 02:23:00;;;;;;;2.20;2.10;;;4.10;56.50;;;;;;4962977;28;21718;-63
2024/02/24 02:25:26;;;;;;;2.00;1.90;;;4.00;56.60;;;;;;4953744;28;20229;-63
2024/02/24 02:27:53;;;;;;;2.33;2.00;;;4.00;56.50;;;;;;4962127;28;20209;-63
2024/02/24 02:30:19;;;;;;;2.00;1.90;;;4.00;56.00;;;;;;4973145;28;20212;-63
2024/02/24 02:32:46;;;;;;;1.90;1.80;;;3.90;56.30;;;;;;4967893;28;20228;-63
2024/02/24 02:35:12;;;;;;;2.00;1.90;;;3.90;56.30;;;;;;4973012;28;20228;-63
2024/02/24 02:37:39;;;;;;;1.93;1.83;;;3.90;56.50;;;;;;4964029;28;20242;-63
2024/02/24 02:40:06;;;;;;;2.30;2.20;;;3.80;56.40;;;;;;4960296;28;20204;-63
2024/02/24 02:42:32;;;;;;;2.10;2.00;;;3.90;56.40;;;;;;4964855;28;20236;-63
2024/02/24 02:44:59;;;;;;;2.03;1.93;;;4.00;55.80;;;;;;4970030;28;20239;-63
2024/02/24 02:47:25;;;;;;;2.10;2.00;;;4.00;55.80;;;;;;4966952;28;20202;-63
2024/02/24 02:49:52;;;;;;;2.30;1.80;;;4.00;55.90;;;;;;4970858;28;20595;-63
2024/02/24 02:52:18;;;;;;;2.37;2.20;;;4.00;55.80;;;;;;4966020;28;20237;-63
2024/02/24 02:54:45;;;;;;;2.07;1.97;;;3.90;56.20;;;;;;4965149;28;20228;-63
2024/02/24 02:57:11;;;;;;;2.00;1.90;;;3.90;56.00;;;;;;4970852;28;20256;-63
2024/02/24 02:59:38;;;;;;;1.90;1.80;;;3.90;56.00;;;;;;4972548;28;20208;-63
2024/02/24 03:02:05;;;;;;;2.67;2.07;;;3.90;55.90;;;;;;4963380;28;20287;-63
2024/02/24 03:04:31;;;;;;;2.10;1.90;;;3.90;56.00;;;;;;4971055;28;20204;-63
2024/02/24 03:06:58;;;;;;;2.00;1.90;;;3.90;56.10;;;;;;4973640;28;20204;-63
2024/02/24 03:09:24;;;;;;;1.80;1.70;;;3.90;56.00;;;;;;4971079;28;20209;-63
2024/02/24 03:11:51;;;;;;;2.00;1.90;;;3.90;56.00;;;;;;4970451;28;20224;-63
2024/02/24 03:14:17;;;;;;;1.87;1.77;;;3.90;55.70;;;;;;4966556;28;20208;-63
2024/02/24 03:16:44;;;;;;;2.10;1.83;;;3.90;55.70;;;;;;4972026;28;20853;-63
2024/02/24 03:19:11;;;;;;;2.10;2.00;;;4.00;55.70;;;;;;4967025;28;20213;-63
2024/02/24 03:21:38;;;;;;;2.10;2.00;;;3.90;56.00;;;;;;4976094;28;20676;-63
2024/02/24 03:24:05;;;;;;;2.30;2.13;;;3.90;55.50;;;;;;4965165;28;20357;-63
2024/02/24 03:26:32;;;;;;;2.00;1.90;;;3.80;55.80;;;;;;4972469;28;20206;-63
2024/02/24 03:28:58;;;;;;;2.20;2.10;;;3.90;55.50;;;;;;4972991;28;20214;-63
2024/02/24 03:31:25;;;;;;;2.10;2.00;;;3.90;55.20;;;;;;4971987;28;20252;-63
2024/02/24 03:33:52;;;;;;;1.90;1.80;;;4.00;55.00;;;;;;4966691;28;20205;-63
2024/02/24 03:36:18;;;;;;;2.10;2.00;;;3.90;55.00;;;;;;4971109;28;20256;-63
2024/02/24 03:38:45;;;;;;;1.80;1.70;;;4.00;54.90;;;;;;4968687;28;20208;-63
2024/02/24 03:41:11;;;;;;;2.00;1.90;;;3.90;55.00;;;;;;4971493;28;20249;-63
2024/02/24 03:43:38;;;;;;;2.00;1.90;;;3.90;54.90;;;;;;4971716;28;20201;-63
2024/02/24 03:46:04;;;;;;;2.00;1.90;;;3.90;54.70;;;;;;4972815;28;20243;-63
2024/02/24 03:48:31;;;;;;;2.07;1.97;;;4.00;54.50;;;;;;4972904;28;20625;-63
2024/02/24 03:50:57;;;;;;;2.00;1.90;;;3.90;54.50;;;;;;4972490;28;20205;-63
2024/02/24 03:53:24;;;;;;;1.97;1.87;;;3.90;54.70;;;;;;4970797;28;20267;-63
2024/02/24 03:55:50;;;;;;;2.50;2.30;;;3.80;54.80;;;;;;4970249;28;20283;-63
2024/02/24 03:58:17;;;;;;;1.90;1.80;;;3.60;55.50;;;;;;4962629;28;20233;-63
2024/02/24 04:00:43;;;;;;;2.00;1.90;;;3.70;55.20;;;;;;4972111;28;20331;-63
2024/02/24 04:03:10;;;;;;;2.10;1.90;;;3.80;55.00;;;;;;4970739;28;20801;-63
2024/02/24 04:05:37;;;;;;;2.20;2.00;;;3.70;54.70;;;;;;4974182;28;20292;-63
2024/02/24 04:08:03;;;;;;;2.00;1.90;;;3.80;55.10;;;;;;4974481;28;20228;-63
2024/02/24 04:10:30;;;;;;;2.50;2.00;;;3.70;55.10;;;;;;4975641;28;20205;-63
2024/02/24 04:12:57;;;;;;;1.67;1.67;;;3.80;54.80;;;;;;4975391;28;20234;-63
2024/02/24 04:15:23;;;;;;;2.07;1.97;;;3.70;55.20;;;;;;4970812;28;20205;-63
2024/02/24 04:17:50;;;;;;;2.37;1.90;;;3.70;55.30;;;;;;4974431;28;20689;-63
2024/02/24 04:20:16;;;;;;;1.90;1.80;;;3.80;55.20;;;;;;4975350;28;20659;-63
2024/02/24 04:22:43;;;;;;;2.03;1.93;;;3.70;55.10;;;;;;4975644;28;20602;-63
2024/02/24 04:25:09;;;;;;;2.20;2.00;;;3.60;55.70;;;;;;4975563;28;20208;-63
2024/02/24 04:27:36;;;;;;;2.67;2.47;;;3.60;55.40;;;;;;4975835;28;20208;-63
2024/02/24 04:30:02;;;;;;;2.13;2.03;;;3.70;55.50;;;;;;4972376;28;20571;-63
2024/02/24 04:32:29;;;;;;;2.10;1.90;;;3.70;55.70;;;;;;4968914;28;20300;-63
2024/02/24 04:34:56;;;;;;;2.07;1.97;;;3.60;56.00;;;;;;4969042;28;20672;-63
2024/02/24 04:37:22;;;;;;;2.53;2.33;;;3.60;56.10;;;;;;4966907;28;20256;-63
2024/02/24 04:39:49;;;;;;;2.30;2.07;;;3.60;56.20;;;;;;4967261;28;20209;-63
2024/02/24 04:42:15;;;;;;;2.40;2.20;;;3.60;56.20;;;;;;4969342;28;20802;-63
2024/02/24 04:44:42;;;;;;;3.03;2.20;;;3.70;56.20;;;;;;4974717;28;20210;-63
2024/02/24 04:47:08;;;;;;;2.60;2.40;;;3.50;56.30;;;;;;4974709;28;20200;-63
2024/02/24 04:49:35;;;;;;;2.03;1.93;;;3.60;56.40;;;;;;4969812;28;20213;-63
2024/02/24 04:52:01;;;;;;;1.90;1.80;;;3.50;56.30;;;;;;4972776;28;20220;-63
2024/02/24 04:54:28;;;;;;;2.10;2.00;;;3.40;56.30;;;;;;4972114;28;20204;-63
2024/02/24 04:56:54;;;;;;;1.93;1.83;;;3.50;56.50;;;;;;4972612;28;20323;-63
2024/02/24 04:59:21;;;;;;;2.10;2.00;;;3.50;56.50;;;;;;4968299;28;20683;-63
2024/02/24 05:01:47;;;;;;;2.00;1.90;;;3.50;56.40;;;;;;4973736;28;20350;-63
2024/02/24 05:04:14;;;;;;;2.10;2.00;;;3.50;56.40;;;;;;4974207;28;20264;-63
2024/02/24 05:06:40;;;;;;;1.90;1.80;;;3.50;56.20;;;;;;4974873;28;20204;-63
2024/02/24 05:09:11;;;;;;;2.10;2.00;;;3.50;56.20;;;;;;4966668;28;20283;-63
2024/02/24 05:11:38;;;;;;;2.10;1.90;;;3.40;56.10;;;;;;4974459;28;20232;-63
2024/02/24 05:14:04;;;;;;;2.00;1.90;;;3.30;56.50;;;;;;4966728;28;20326;-63
2024/02/24 05:16:32;;;;;;;2.00;1.90;;;3.20;56.90;;;;;;4968672;28;20712;-63
2024/02/24 05:18:59;;;;;;;2.17;2.07;;;3.30;56.40;;;;;;4972801;28;20243;-63
2024/02/24 05:21:26;;;;;;;2.13;2.03;;;3.40;56.20;;;;;;4974385;28;20580;-63
2024/02/24 05:23:53;;;;;;;1.60;1.50;;;3.40;55.90;;;;;;4973857;28;20630;-63
2024/02/24 05:26:19;;;;;;;2.30;1.90;;;3.50;55.70;;;;;;4974469;28;20219;-63
2024/02/24 05:28:46;;;;;;;2.00;1.90;;;3.40;55.70;;;;;;4974036;28;20243;-63
2024/02/24 05:31:12;;;;;;;2.00;1.90;;;3.50;55.50;;;;;;4973622;28;20244;-63
2024/02/24 05:33:39;;;;;;;1.90;1.80;;;3.50;55.30;;;;;;4964998;28;20667;-63
2024/02/24 05:36:06;;;;;;;1.90;1.80;;;3.30;55.60;;;;;;4966397;28;20268;-63
2024/02/24 05:38:32;;;;;;;1.87;1.77;;;3.40;55.70;;;;;;4974279;28;20250;-63
2024/02/24 05:41:00;;;;;;;2.60;1.90;;;3.30;56.00;;;;;;4974083;28;20798;-63
2024/02/24 05:43:27;;;;;;;1.90;1.80;;;3.30;56.00;;;;;;4971737;28;20222;-63
2024/02/24 05:45:54;;;;;;;1.90;1.80;;;3.40;55.90;;;;;;4964399;28;20200;-63
2024/02/24 05:48:21;;;;;;;2.00;1.90;;;3.30;56.00;;;;;;4970511;28;20232;-63
2024/02/24 05:50:49;;;;;;;2.00;1.90;;;3.30;55.90;;;;;;4963009;28;20328;-63
2024/02/24 05:53:15;;;;;;;1.73;1.63;;;3.30;56.20;;;;;;4973659;28;20248;-63
2024/02/24 05:55:42;;;;;;;4.43;3.30;;;3.10;56.20;;;;;;4973053;28;20613;-63
2024/02/24 05:58:09;;;;;;;2.57;2.03;;;3.00;57.00;;;;;;4967908;28;20692;-63
2024/02/24 06:00:35;;;;;;;2.03;1.93;;;3.20;56.70;;;;;;4968820;28;20212;-62
2024/02/24 06:03:02;;;;;;;2.10;2.00;;;3.20;56.60;;;;;;4971247;28;20275;-63
2024/02/24 06:05:28;;;;;;;2.03;1.93;;;3.30;56.10;;;;;;4973562;28;20208;-62
2024/02/24 06:07:55;;;;;;;2.10;2.00;;;3.40;56.00;;;;;;4973217;28;20201;-63
2024/02/24 06:10:21;;;;;;;2.20;2.10;;;3.30;56.40;;;;;;4972776;28;20220;-63
2024/02/24 06:12:48;;;;;;;2.50;2.30;;;3.10;56.40;;;;;;4972770;28;20240;-63
2024/02/24 06:15:15;;;;;;;1.90;1.80;;;3.20;56.50;;;;;;4970148;28;20227;-63
2024/02/24 06:17:41;;;;;;;2.20;2.10;;;3.20;56.50;;;;;;4962905;28;20248;-63
2024/02/24 06:20:08;;;;;;;1.90;1.80;;;3.20;56.50;;;;;;4972933;28;20200;-63
2024/02/24 06:22:34;;;;;;;2.27;2.17;;;3.10;56.30;;;;;;4967527;28;20275;-63
2024/02/24 06:25:01;;;;;;;2.03;1.93;;;3.20;56.30;;;;;;4972926;28;20249;-62
2024/02/24 06:27:29;;;;;;;2.00;1.90;;;3.20;56.50;;;;;;4970906;28;20193;-63
2024/02/24 06:29:56;;;;;;;2.10;2.00;;;3.10;56.60;;;;;;4970544;28;20205;-63
2024/02/24 06:32:22;;;;;;;2.10;2.00;;;3.10;56.70;;;;;;4972590;28;20228;-63
2024/02/24 06:34:49;;;;;;;2.13;1.93;;;3.10;56.50;;;;;;4967324;28;20208;-63
2024/02/24 06:37:15;;;;;;;1.70;1.70;;;3.10;56.30;;;;;;4973136;28;20602;-62
2024/02/24 06:39:42;;;;;;;2.00;1.90;;;3.10;56.30;;;;;;4972184;28;20263;-63
2024/02/24 06:42:08;;;;;;;1.90;1.80;;;3.10;56.20;;;;;;4960640;28;20355;-63
2024/02/24 06:44:35;;;;;;;2.00;1.90;;;3.10;56.30;;;;;;4970864;28;20286;-63
2024/02/24 06:47:01;;;;;;;2.90;1.97;;;3.20;56.10;;;;;;4977480;28;20196;-63
2024/02/24 06:49:28;;;;;;;2.00;1.90;;;3.20;55.70;;;;;;4989813;28;20205;-62
2024/02/24 06:51:55;;;;;;;1.80;1.70;;;3.30;55.10;;;;;;4990226;28;20240;-63
2024/02/24 06:54:21;;;;;;;2.07;1.87;;;3.40;55.00;;;;;;4977428;28;20259;-63
2024/02/24 06:56:48;;;;;;;2.00;1.90;;;3.30;54.60;;;;;;4963180;28;20866;-63
2024/02/24 06:59:14;;;;;;;2.17;2.07;;;3.40;54.40;;;;;;4963238;28;20205;-63
2024/02/24 07:01:41;;;;;;;2.00;1.90;;;3.50;54.60;;;;;;4971946;28;20261;-63
2024/02/24 07:04:07;;;;;;;1.80;1.70;;;3.50;54.10;;;;;;4971353;28;20205;-63
2024/02/24 07:06:34;;;;;;;1.90;1.80;;;3.50;54.00;;;;;;4972715;28;20646;-63
2024/02/24 07:09:00;;;;;;;2.50;1.53;;;3.60;53.60;;;;;;4968938;28;20216;-63
2024/02/24 07:11:27;;;;;;;1.90;1.80;;;3.60;53.60;;;;;;4972133;28;20239;-63
2024/02/24 07:13:53;;;;;;;1.77;1.67;;;3.70;53.60;;;;;;4972259;28;20236;-63
2024/02/24 07:16:20;;;;;;;1.83;1.73;;;3.80;53.70;;;;;;4962173;28;20678;-63
2024/02/24 07:18:46;;;;;;;2.23;1.80;;;3.80;53.20;;;;;;4969947;28;20220;-63
2024/02/24 07:21:13;;;;;;;1.80;1.70;;;3.80;52.80;;;;;;4972809;28;20229;-63
2024/02/24 07:23:39;;;;;;;1.83;1.73;;;3.80;52.70;;;;;;4969481;28;20267;-63
2024/02/24 07:26:06;;;;;;;1.90;1.80;;;3.90;53.00;;;;;;4969787;28;20259;-63
2024/02/24 07:28:32;;;;;;;2.10;2.00;;;4.00;52.70;;;;;;4972567;28;20212;-63
2024/02/24 07:30:59;;;;;;;2.33;2.23;;;4.00;53.80;;;;;;4963895;28;20271;-63
2024/02/24 07:33:25;;;;;;;2.10;2.00;;;4.00;53.50;;;;;;4963137;28;20205;-63
2024/02/24 07:35:52;;;;;;;2.10;1.90;;;4.00;53.00;;;;;;4965832;28;20221;-63
2024/02/24 07:38:18;;;;;;;2.00;1.90;;;4.20;52.60;;;;;;4966574;28;20222;-63
2024/02/24 07:40:45;;;;;;;2.13;2.00;;;4.20;52.10;;;;;;4964033;28;20638;-63
2024/02/24 07:43:12;;;;;;;2.43;2.10;;;4.20;52.20;;;;;;4970294;28;20272;-63
2024/02/24 07:45:38;;;;;;;2.20;2.10;;;4.30;52.20;;;;;;4969995;28;20724;-63
2024/02/24 07:48:06;;;;;;;2.10;2.00;;;4.40;51.70;;;;;;4964670;28;20201;-63
2024/02/24 07:50:32;;;;;;;2.23;2.03;;;4.50;51.40;;;;;;4966772;28;20204;-63
2024/02/24 07:52:59;;;;;;;2.10;2.00;;;4.50;51.80;;;;;;4968274;28;20268;-63
2024/02/24 07:55:25;;;;;;;2.30;2.10;;;4.60;51.10;;;;;;4971931;28;20681;-63
2024/02/24 07:57:52;;;;;;;1.90;1.80;;;4.70;51.40;;;;;;4959108;28;20269;-63
2024/02/24 08:00:19;;;;;;;2.03;1.83;;;4.70;50.50;;;;;;4955362;28;20595;-63
2024/02/24 08:02:46;;;;;;;2.00;1.90;;;4.70;50.20;;;;;;4971678;28;20320;-63
2024/02/24 08:05:12;;;;;;;1.90;1.80;;;4.80;50.20;;;;;;4975581;28;20229;-63
2024/02/24 08:07:39;;;;;;;2.00;1.90;;;4.70;50.70;;;;;;4968946;28;20887;-63
2024/02/24 08:10:05;;;;;;;2.00;1.90;;;4.90;49.90;;;;;;4974970;28;20748;-63
2024/02/24 08:12:32;;;;;;;1.80;1.70;;;5.00;49.70;;;;;;4972677;28;20229;-63
2024/02/24 08:14:58;;;;;;;2.00;1.90;;;5.00;49.60;;;;;;4964021;28;20283;-63
2024/02/24 08:17:25;;;;;;;2.07;1.83;;;5.10;49.70;;;;;;4962320;28;20324;-70
2024/02/24 08:19:51;;;;;;;1.73;1.63;;;5.30;48.60;;;;;;4966589;28;20285;-64
2024/02/24 08:22:18;;;;;;;2.07;1.97;;;5.40;48.60;;;;;;4967174;28;20287;-63
2024/02/24 08:24:45;;;;;;;2.10;2.00;;;5.40;48.40;;;;;;4966457;28;20292;-63
2024/02/24 08:27:11;;;;;;;1.50;1.50;;;5.50;48.30;;;;;;4968412;28;20732;-63
2024/02/24 08:29:38;;;;;;;1.77;1.67;;;5.80;46.80;;;;;;4967212;28;20218;-63
2024/02/24 08:32:05;;;;;;;1.43;1.43;;;6.00;46.50;;;;;;4965401;28;20624;-62
2024/02/24 08:34:31;;;;;;;1.67;1.57;;;6.20;45.40;;;;;;4972223;28;20244;-62
2024/02/24 08:36:58;;;;;;;1.50;1.40;;;6.40;43.80;;;;;;4963615;28;20300;-63
2024/02/24 08:39:24;;;;;;;1.67;1.60;;;6.80;42.80;;;;;;4962226;28;20239;-63
2024/02/24 08:41:51;;;;;;;1.77;1.63;;;7.10;43.10;;;;;;4964552;28;20227;-62
2024/02/24 08:44:17;;;;;;;1.73;1.63;;;7.50;43.40;;;;;;4970152;28;20215;-63
2024/02/24 08:46:44;;;;;;;1.80;1.70;;;7.90;42.60;;;;;;4955648;28;20303;-63
2024/02/24 08:49:10;;;;;;;1.57;1.47;;;8.20;42.30;;;;;;4961117;28;20263;-63
2024/02/24 08:51:37;;;;;;;1.77;1.67;;;8.70;41.70;;;;;;4960444;28;20674;-63
2024/02/24 08:54:03;;;;;;;1.70;1.57;;;8.80;40.90;;;;;;4965446;28;20205;-63
2024/02/24 08:56:30;;;;;;;1.70;1.60;;;8.90;40.50;;;;;;4966877;28;20260;-62
2024/02/24 08:58:56;;;;;;;1.60;1.50;;;8.80;41.20;;;;;;4974256;28;20233;-63
2024/02/24 09:01:23;;;;;;;1.60;1.50;;;8.60;41.50;;;;;;4965947;28;20299;-62
2024/02/24 09:03:49;;;;;;;2.00;1.70;;;8.80;41.00;;;;;;4972236;28;20215;-62
2024/02/24 09:06:16;;;;;;;1.90;1.80;;;9.40;40.40;;;;;;4967229;28;20233;-62
2024/02/24 09:08:42;;;;;;;1.80;1.70;;;9.60;39.40;;;;;;4962356;28;20298;-62
2024/02/24 09:11:09;;;;;;;1.70;1.60;;;9.60;40.10;;;;;;4960991;28;20262;-64
2024/02/24 09:13:35;;;;;;;1.87;1.77;;;9.70;39.50;;;;;;4963132;28;20310;-63
2024/02/24 09:16:02;;;;;;;1.50;1.40;;;9.80;39.00;;;;;;4970657;28;20208;-62
2024/02/24 09:18:30;;;;;;;1.57;1.47;;;10.10;37.70;;;;;;4963608;28;20337;-63
2024/02/24 09:20:57;;;;;;;1.50;1.40;;;10.10;37.60;;;;;;4966934;28;20220;-64
2024/02/24 09:23:23;;;;;;;1.60;1.50;;;10.10;37.70;;;;;;4967148;28;20299;-63
2024/02/24 09:25:50;;;;;;;1.70;1.60;;;10.50;37.70;;;;;;4969553;28;20372;-63
2024/02/24 09:28:16;;;;;;;1.70;1.40;;;10.80;36.00;;;;;;4969894;28;20661;-63
2024/02/24 09:30:43;;;;;;;1.30;1.30;;;10.70;36.30;;;;;;4963697;28;20240;-62
2024/02/24 09:33:09;;;;;;;1.70;1.60;;;10.60;36.90;;;;;;4966624;28;20286;-62
2024/02/24 09:35:36;;;;;;;1.50;1.40;;;11.00;36.10;;;;;;4965202;28;20246;-62
2024/02/24 09:38:02;;;;;;;1.40;1.40;;;11.30;34.60;;;;;;4970861;28;20230;-63
2024/02/24 09:40:29;;;;;;;1.63;1.30;;;11.60;35.60;;;;;;4974186;28;20271;-63
2024/02/24 09:42:55;;;;;;;1.50;1.40;;;11.60;35.20;;;;;;4969805;28;20261;-63
2024/02/24 09:45:22;;;;;;;1.30;1.20;;;11.70;34.30;;;;;;4968433;28;20260;-63
2024/02/24 09:47:48;;;;;;;1.30;1.20;;;11.70;34.20;;;;;;4973417;28;20201;-63
2024/02/24 09:50:15;;;;;;;1.30;1.30;;;11.50;34.00;;;;;;4969418;28;20306;-63
2024/02/24 09:52:41;;;;;;;1.40;1.30;;;11.60;34.00;;;;;;4963335;28;20228;-63
2024/02/24 09:55:08;;;;;;;1.10;1.10;;;11.80;33.60;;;;;;4968969;28;20566;-63
2024/02/24 09:57:36;;;;;;;1.40;1.30;;;12.20;33.10;;;;;;4964376;28;20260;-63
2024/02/24 10:00:03;;;;;;;1.40;1.33;;;12.50;33.10;;;;;;4972162;28;20560;-63
2024/02/24 10:02:30;;;;;;;1.60;1.50;;;12.50;32.70;;;;;;4966911;28;20427;-63
2024/02/24 10:04:57;;;;;;;1.23;1.10;;;12.50;32.50;;;;;;4968738;28;20216;-64
2024/02/24 10:07:23;;;;;;;1.27;1.27;;;12.70;32.20;;;;;;4967484;28;20209;-66
2024/02/24 10:09:50;;;;;;;1.40;1.30;;;12.90;31.90;;;;;;4965586;28;20233;-64
2024/02/24 10:12:16;;;;;;;1.10;1.10;;;13.20;31.50;;;;;;4971160;28;20225;-63
2024/02/24 10:14:42;;;;;;;1.27;1.17;;;13.10;31.20;;;;;;4934619;28;20226;-64
2024/02/24 10:17:09;;;;;;;1.30;1.30;;;12.80;31.20;;;;;;4960959;28;20303;-64
2024/02/24 10:19:36;;;;;;;2.13;1.50;;;13.50;29.40;;;;;;4966349;28;20217;-64
2024/02/24 10:22:04;;;;;;;1.10;1.10;;;15.20;27.30;;;;;;4961472;28;20287;-64
2024/02/24 10:24:30;;;;;;;1.30;1.00;;;16.90;25.20;;;;;;4967625;28;20212;-64
2024/02/24 10:26:57;;;;;;;1.57;1.40;;;17.60;25.00;;;;;;4939283;28;20207;-64
2024/02/24 10:29:23;;;;;;;1.40;1.30;;;16.90;25.20;;;;;;4926290;28;20224;-64
2024/02/24 10:31:50;;;;;;;1.47;1.37;;;15.40;26.70;;;;;;4957556;28;20297;-64
2024/02/24 10:34:16;;;;;;;1.90;1.60;;;14.40;28.70;;;;;;4968389;28;20677;-63
2024/02/24 10:36:43;;;;;;;1.80;1.70;;;13.70;29.40;;;;;;4950120;28;20282;-64
2024/02/24 10:39:10;;;;;;;2.17;1.43;;;14.10;29.50;;;;;;4956585;28;20244;-64
2024/02/24 10:41:36;;;;;;;1.50;1.30;;;13.80;28.90;;;;;;4955140;28;20790;-63
2024/02/24 10:44:03;;;;;;;1.40;1.30;;;13.60;29.20;;;;;;4961710;28;20205;-63
2024/02/24 10:46:30;;;;;;;2.07;1.90;;;13.40;29.10;;;;;;4960825;28;20214;-63
2024/02/24 10:48:56;;;;;;;1.60;1.20;;;13.30;29.00;;;;;;4959850;28;20210;-63
2024/02/24 10:51:23;;;;;;;1.43;1.23;;;13.00;29.60;;;;;;4969865;28;20648;-63
2024/02/24 10:53:50;;;;;;;1.80;1.70;;;11.90;30.40;;;;;;4960492;28;20631;-63
2024/02/24 10:56:16;;;;;;;1.30;1.30;;;11.80;31.20;;;;;;4965904;28;20215;-63
2024/02/24 10:58:43;;;;;;;1.37;1.27;;;12.50;31.00;;;;;;4970417;28;20231;-64
2024/02/24 11:01:09;;;;;;;1.60;1.27;;;12.50;30.60;;;;;;4970292;28;20232;-63
2024/02/24 11:03:36;;;;;;;1.57;1.57;;;12.60;30.30;;;;;;4972207;28;20272;-63
2024/02/24 11:06:03;;;;;;;1.40;1.30;;;12.60;30.40;;;;;;4958662;28;20217;-63
2024/02/24 11:08:29;;;;;;;1.50;1.40;;;12.80;30.40;;;;;;4972333;28;20282;-64
2024/02/24 11:10:56;;;;;;;1.40;1.30;;;13.30;29.00;;;;;;4961391;28;20217;-64
2024/02/24 11:13:22;;;;;;;1.30;1.20;;;13.10;29.30;;;;;;4965059;28;20253;-64
2024/02/24 11:15:49;;;;;;;1.30;1.30;;;12.50;30.60;;;;;;4967173;28;20213;-65
2024/02/24 11:18:15;;;;;;;1.70;1.43;;;12.50;30.30;;;;;;4947092;28;20272;-65
2024/02/24 11:20:42;;;;;;;1.20;1.20;;;12.90;30.00;;;;;;4964772;28;20306;-65
2024/02/24 11:23:08;;;;;;;1.37;1.27;;;13.70;29.30;;;;;;4964708;28;20681;-65
2024/02/24 11:25:35;;;;;;;1.33;1.23;;;14.70;27.80;;;;;;4967819;28;20203;-70
2024/02/24 11:28:01;;;;;;;1.20;1.20;;;15.90;27.00;;;;;;4966237;28;20261;-65
2024/02/24 11:30:28;;;;;;;1.13;1.03;;;16.60;26.20;;;;;;4967461;28;20248;-64
2024/02/24 11:32:54;;;;;;;1.30;1.30;;;16.10;25.60;;;;;;4974347;28;20283;-64
2024/02/24 11:35:21;;;;;;;1.20;1.10;;;16.30;25.80;;;;;;4960873;28;20608;-65
2024/02/24 11:37:48;;;;;;;2.80;1.30;;;16.60;25.10;;;;;;4968695;28;20224;-64
2024/02/24 11:40:14;;;;;;;1.80;1.20;;;17.00;25.50;;;;;;4970189;28;20208;-64
2024/02/24 11:42:40;;;;;;;1.17;1.08;;;16.50;25.60;;;;;;4970997;28;20224;-65
2024/02/24 11:45:07;;;;;;;1.00;1.00;;;14.40;27.20;;;;;;4965762;28;20208;-63
2024/02/24 11:47:36;;;;;;;1.17;1.10;;;13.50;29.20;;;;;;4967850;28;20255;-63
2024/02/24 11:50:03;;;;;;;1.73;1.27;;;12.70;29.60;;;;;;4963549;28;20205;-65
2024/02/24 11:52:30;;;;;;;1.33;1.20;;;12.40;31.00;;;;;;4964402;28;20226;-65
2024/02/24 11:54:56;;;;;;;1.83;1.60;;;12.40;30.70;;;;;;4963785;28;20205;-64
2024/02/24 11:57:23;;;;;;;1.17;1.10;;;12.80;30.00;;;;;;4962697;28;20263;-65
2024/02/24 11:59:50;;;;;;;1.10;1.10;;;12.40;30.40;;;;;;4964734;28;20212;-64
2024/02/24 12:02:17;;;;;;;1.17;1.10;;;12.10;29.90;;;;;;4972536;28;20699;-65
2024/02/24 12:04:43;;;;;;;1.47;1.23;;;11.70;32.00;;;;;;4964686;28;20248;-64
2024/02/24 12:07:10;;;;;;;1.43;1.33;;;11.60;31.90;;;;;;4969726;28;20267;-64
2024/02/24 12:09:36;;;;;;;1.40;1.30;;;11.40;31.70;;;;;;4968291;28;20204;-64
2024/02/24 12:12:03;;;;;;;1.40;1.30;;;10.90;31.80;;;;;;4974454;28;20223;-65
2024/02/24 12:14:29;;;;;;;1.37;1.27;;;10.70;32.20;;;;;;4967996;28;20233;-64
2024/02/24 12:16:56;;;;;;;1.40;1.30;;;10.70;32.40;;;;;;4971590;28;20221;-64
2024/02/24 12:19:25;;;;;;;1.40;1.30;;;10.80;33.00;;;;;;4964649;28;20256;-64
2024/02/24 12:21:51;;;;;;;1.50;1.40;;;10.90;33.00;;;;;;4965187;28;20262;-65
2024/02/24 12:24:18;;;;;;;1.37;1.33;;;11.10;32.80;;;;;;4964075;28;20245;-65
2024/02/24 12:26:44;;;;;;;1.70;1.60;;;11.40;32.10;;;;;;4963696;28;20218;-65
2024/02/24 12:29:11;;;;;;;1.77;1.67;;;12.20;30.80;;;;;;4969194;28;20212;-65
2024/02/24 12:31:37;;;;;;;1.80;1.70;;;15.10;26.80;;;;;;4969941;28;20339;-66
2024/02/24 12:34:05;;;;;;;1.73;1.63;;;18.00;24.80;;;;;;4967324;28;20684;-63
2024/02/24 12:36:31;;;;;;;1.38;1.27;;;19.80;22.50;;;;;;4973529;28;20204;-63
2024/02/24 12:38:58;;;;;;;1.13;1.10;;;19.40;22.50;;;;;;4974338;28;20232;-64
2024/02/24 12:41:25;;;;;;;1.48;1.20;;;20.00;21.40;;;;;;4969463;28;20232;-63
2024/02/24 12:43:51;;;;;;;0.90;0.80;;;19.80;21.80;;;;;;4968975;28;20208;-65
2024/02/24 12:46:22;;;;;;;1.83;1.63;;;17.40;23.30;;;;;;4973132;28;20271;-65
2024/02/24 12:48:48;;;;;;;0.80;0.80;;;15.20;25.60;;;;;;4971271;28;20299;-65
2024/02/24 12:51:15;;;;;;;1.20;1.10;;;13.50;27.10;;;;;;4965125;28;20235;-65